createdAt,value
2019-05-13T00:01:34.505Z,4.87
2019-05-13T00:04:03.697Z,6.00
2019-05-13T00:06:34.386Z,10.25
2019-05-13T00:09:05.557Z,5.60
2019-05-13T00:11:34.647Z,8.05
2019-05-13T00:14:04.417Z,10.72
2019-05-13T00:16:34.177Z,6.92
2019-05-13T00:19:04.179Z,8.03
2019-05-13T00:21:33.840Z,7.72
2019-05-13T00:24:04.108Z,5.08
2019-05-13T00:26:33.821Z,8.18
2019-05-13T00:29:04.139Z,5.55
2019-05-13T00:31:33.589Z,10.58
2019-05-13T00:34:03.720Z,8.53
2019-05-13T00:36:33.767Z,12.40
2019-05-13T00:39:05.130Z,11.40
2019-05-13T00:41:33.941Z,6.92
2019-05-13T00:44:03.825Z,5.42
2019-05-13T00:46:33.989Z,6.78
2019-05-13T00:49:04.774Z,7.33
2019-05-13T00:51:33.831Z,10.05
2019-05-13T00:54:04.393Z,7.70
2019-05-13T00:56:34.482Z,6.10
2019-05-13T00:59:03.782Z,7.47
2019-05-13T01:01:33.513Z,8.35
2019-05-13T01:04:03.961Z,8.30
2019-05-13T01:06:34.143Z,8.85
2019-05-13T01:09:06.219Z,10.60
2019-05-13T01:11:34.747Z,12.82
2019-05-13T01:14:04.241Z,8.30
2019-05-13T01:16:34.106Z,13.30
2019-05-13T01:19:04.237Z,8.35
2019-05-13T01:21:34.528Z,10.13
2019-05-13T01:24:03.873Z,16.20
2019-05-13T01:26:33.768Z,9.30
2019-05-13T01:29:04.164Z,17.52
2019-05-13T01:31:34.411Z,9.38
2019-05-13T01:34:04.066Z,12.75
2019-05-13T01:36:34.112Z,8.50
2019-05-13T01:39:05.805Z,12.68
2019-05-13T01:41:34.500Z,9.20
2019-05-13T01:44:03.998Z,10.30
2019-05-13T01:46:34.672Z,10.08
2019-05-13T01:49:04.990Z,5.72
2019-05-13T01:51:33.948Z,6.53
2019-05-13T01:54:04.211Z,3.98
2019-05-13T01:56:33.986Z,10.78
2019-05-13T01:59:03.643Z,7.62
2019-05-13T02:01:33.716Z,7.72
2019-05-13T02:04:04.043Z,6.37
2019-05-13T02:06:33.595Z,8.93
2019-05-13T02:09:05.882Z,13.60
2019-05-13T02:11:34.710Z,8.78
2019-05-13T02:14:05.706Z,7.50
2019-05-13T02:16:34.308Z,9.13
2019-05-13T02:19:03.949Z,10.95
2019-05-13T02:21:33.679Z,6.53
2019-05-13T02:24:04.374Z,7.67
2019-05-13T02:26:34.503Z,12.50
2019-05-13T02:29:03.798Z,13.05
2019-05-13T02:31:45.461Z,7.87
2019-05-13T02:34:03.381Z,9.70
2019-05-13T02:36:32.992Z,14.23
2019-05-13T02:39:02.857Z,12.28
2019-05-13T02:41:34.110Z,11.97
2019-05-13T02:44:03.544Z,18.67
2019-05-13T02:46:33.883Z,27.02
2019-05-13T02:49:03.367Z,15.20
2019-05-13T02:51:32.956Z,10.18
2019-05-13T02:54:03.485Z,7.10
2019-05-13T02:56:33.177Z,13.08
2019-05-13T02:59:04.033Z,12.95
2019-05-13T03:01:33.340Z,9.93
2019-05-13T03:04:03.103Z,13.13
2019-05-13T03:06:33.246Z,11.95
2019-05-13T03:09:05.473Z,16.80
2019-05-13T03:11:34.255Z,12.10
2019-05-13T03:14:03.878Z,8.35
2019-05-13T03:16:52.517Z,10.98
2019-05-13T03:19:22.403Z,18.23
2019-05-13T03:21:52.443Z,15.45
2019-05-13T03:24:22.890Z,17.07
2019-05-13T03:26:53.262Z,13.35
2019-05-13T03:29:22.478Z,9.65
2019-05-13T03:31:55.702Z,9.73
2019-05-13T03:34:26.705Z,18.60
2019-05-13T03:36:57.013Z,14.00
2019-05-13T03:39:23.601Z,11.73
2019-05-13T03:41:54.617Z,13.13
2019-05-13T03:44:25.281Z,11.45
2019-05-13T03:46:56.498Z,8.88
2019-05-13T03:49:27.902Z,18.92
2019-05-13T03:51:56.819Z,13.25
2019-05-13T03:54:25.758Z,12.78
2019-05-13T03:56:54.398Z,20.72
2019-05-13T03:59:23.353Z,10.98
2019-05-13T04:01:52.640Z,13.95
2019-05-13T04:04:23.351Z,6.55
2019-05-13T04:06:53.195Z,17.27
2019-05-13T04:09:30.127Z,12.18
2019-05-13T04:11:52.955Z,16.52
2019-05-13T04:14:22.839Z,24.70
2019-05-13T04:16:53.140Z,18.48
2019-05-13T04:19:23.402Z,14.50
2019-05-13T04:21:52.951Z,16.00
2019-05-13T04:24:22.892Z,17.67
2019-05-13T04:26:53.340Z,16.07
2019-05-13T04:29:23.392Z,14.78
2019-05-13T04:31:53.321Z,12.40
2019-05-13T04:34:23.059Z,12.75
2019-05-13T04:36:52.162Z,12.80
2019-05-13T04:39:40.399Z,13.20
2019-05-13T04:41:52.817Z,13.53
2019-05-13T04:44:24.008Z,16.37
2019-05-13T04:46:52.830Z,21.87
2019-05-13T04:49:23.287Z,24.35
2019-05-13T04:51:52.591Z,12.93
2019-05-13T04:54:22.510Z,23.85
2019-05-13T04:56:52.707Z,11.73
2019-05-13T04:59:22.683Z,16.57
2019-05-13T05:02:43.017Z,16.45
2019-05-13T05:05:14.394Z,14.63
2019-05-13T05:08:28.410Z,12.93
2019-05-13T05:11:32.145Z,13.35
2019-05-13T05:14:37.040Z,13.27
2019-05-13T05:17:52.365Z,17.40
2019-05-13T05:21:02.816Z,15.15
2019-05-13T05:23:56.972Z,15.30
2019-05-13T05:27:04.176Z,19.85
2019-05-13T05:29:54.965Z,10.03
2019-05-13T05:32:42.294Z,12.50
2019-05-13T05:35:54.303Z,15.10
2019-05-13T05:38:52.767Z,11.53
2019-05-13T05:41:23.725Z,15.53
2019-05-13T05:43:54.363Z,14.73
2019-05-13T05:46:23.918Z,14.90
2019-05-13T05:48:53.740Z,16.82
2019-05-13T05:51:23.973Z,12.95
2019-05-13T05:53:56.253Z,11.60
2019-05-13T05:56:28.843Z,18.12
2019-05-13T05:58:58.374Z,16.60
2019-05-13T06:01:28.120Z,15.98
2019-05-13T06:03:57.564Z,14.50
2019-05-13T06:06:27.437Z,16.87
2019-05-13T06:08:56.253Z,13.60
2019-05-13T06:11:25.313Z,20.02
2019-05-13T06:13:54.698Z,22.62
2019-05-13T06:16:23.403Z,16.07
2019-05-13T06:18:52.373Z,17.42
2019-05-13T06:21:21.625Z,10.58
2019-05-13T06:23:51.825Z,10.38
2019-05-13T06:26:23.636Z,18.10
2019-05-13T06:28:52.055Z,14.65
2019-05-13T06:31:21.689Z,12.20
2019-05-13T06:33:51.486Z,16.10
2019-05-13T06:36:22.057Z,11.60
2019-05-13T06:38:51.426Z,11.57
2019-05-13T06:41:21.925Z,11.73
2019-05-13T06:43:52.360Z,13.70
2019-05-13T06:46:21.832Z,11.30
2019-05-13T06:48:52.102Z,11.80
2019-05-13T06:51:22.214Z,12.63
2019-05-13T06:53:51.741Z,13.22
2019-05-13T06:56:21.766Z,10.10
2019-05-13T06:58:51.979Z,10.30
2019-05-13T07:01:21.711Z,10.43
2019-05-13T07:03:51.815Z,9.60
2019-05-13T07:06:21.720Z,16.10
2019-05-13T07:08:52.145Z,17.52
2019-05-13T07:11:24.056Z,11.95
2019-05-13T07:13:51.761Z,10.40
2019-05-13T07:16:22.366Z,11.63
2019-05-13T07:18:52.320Z,9.85
2019-05-13T07:21:21.819Z,10.25
2019-05-13T07:23:54.193Z,14.07
2019-05-13T07:26:22.115Z,15.18
2019-05-13T07:28:52.459Z,9.95
2019-05-13T07:31:21.924Z,9.08
2019-05-13T07:33:51.776Z,14.30
2019-05-13T07:36:22.620Z,8.30
2019-05-13T07:38:52.195Z,8.30
2019-05-13T07:41:34.750Z,13.72
2019-05-13T07:43:51.826Z,6.05
2019-05-13T07:46:21.809Z,6.85
2019-05-13T07:48:52.082Z,14.80
2019-05-13T07:51:22.182Z,12.55
2019-05-13T07:53:51.809Z,9.73
2019-05-13T07:56:21.897Z,8.38
2019-05-13T07:58:52.380Z,10.00
2019-05-13T08:01:22.117Z,10.20
2019-05-13T08:03:51.589Z,8.10
2019-05-13T08:06:21.944Z,9.43
2019-05-13T08:08:52.297Z,6.22
2019-05-13T08:11:22.394Z,8.73
2019-05-13T08:13:51.879Z,12.37
2019-05-13T08:16:22.265Z,12.80
2019-05-13T08:18:52.338Z,8.25
2019-05-13T08:21:21.561Z,10.75
2019-05-13T08:23:52.467Z,9.60
2019-05-13T08:26:21.672Z,5.08
2019-05-13T08:29:00.506Z,5.80
2019-05-13T08:31:21.781Z,7.53
2019-05-13T08:33:51.846Z,8.03
2019-05-13T08:36:23.301Z,4.47
2019-05-13T08:38:52.030Z,8.48
2019-05-13T08:41:23.530Z,6.22
2019-05-13T08:43:52.317Z,5.67
2019-05-13T08:46:21.982Z,5.30
2019-05-13T08:48:51.790Z,8.43
2019-05-13T08:51:22.088Z,5.67
2019-05-13T08:53:51.661Z,5.87
2019-05-13T08:56:21.810Z,6.33
2019-05-13T08:58:52.125Z,4.15
2019-05-13T09:01:22.743Z,6.90
2019-05-13T09:03:52.197Z,8.38
2019-05-13T09:06:22.204Z,6.25
2019-05-13T09:08:54.068Z,5.03
2019-05-13T09:11:22.237Z,3.77
2019-05-13T09:13:51.702Z,4.25
2019-05-13T09:16:21.455Z,4.20
2019-05-13T09:18:52.056Z,5.15
2019-05-13T09:21:22.492Z,5.80
2019-05-13T09:23:51.583Z,5.08
2019-05-13T09:26:22.576Z,5.12
2019-05-13T09:28:52.150Z,5.75
2019-05-13T09:31:22.085Z,5.30
2019-05-13T09:33:52.060Z,6.33
2019-05-13T09:36:21.790Z,5.30
2019-05-13T09:38:53.976Z,5.45
2019-05-13T09:41:22.462Z,5.95
2019-05-13T09:43:51.525Z,7.97
2019-05-13T09:46:22.619Z,5.60
2019-05-13T09:48:51.782Z,3.42
2019-05-13T09:51:21.741Z,5.72
2019-05-13T09:53:51.983Z,5.33
2019-05-13T09:56:22.410Z,6.08
2019-05-13T09:58:51.456Z,7.12
2019-05-13T10:01:22.363Z,8.60
2019-05-13T10:03:54.957Z,6.05
2019-05-13T10:06:22.287Z,3.02
2019-05-13T10:08:52.635Z,4.55
2019-05-13T10:11:21.868Z,4.05
2019-05-13T10:13:51.482Z,4.97
2019-05-13T10:16:22.105Z,1.85
2019-05-13T10:18:52.439Z,7.47
2019-05-13T10:21:21.935Z,2.95
2019-05-13T10:23:50.888Z,6.12
2019-05-13T10:26:22.005Z,7.37
2019-05-13T10:28:50.274Z,5.90
2019-05-13T10:31:19.077Z,5.33
2019-05-13T10:33:47.736Z,1.45
2019-05-13T10:36:16.462Z,4.95
2019-05-13T10:38:45.100Z,6.33
2019-05-13T10:41:13.724Z,5.70
2019-05-13T10:43:44.308Z,6.22
2019-05-13T10:46:13.196Z,3.55
2019-05-13T10:48:41.865Z,5.17
2019-05-13T10:51:13.119Z,2.85
2019-05-13T10:53:42.667Z,2.85
2019-05-13T10:56:11.390Z,3.60
2019-05-13T10:58:42.649Z,3.37
2019-05-13T11:01:11.740Z,2.92
2019-05-13T11:03:42.729Z,2.22
2019-05-13T11:06:11.765Z,2.00
2019-05-13T11:08:42.256Z,3.40
2019-05-13T11:11:13.075Z,7.00
2019-05-13T11:13:56.431Z,5.00
2019-05-13T11:16:12.747Z,4.97
2019-05-13T11:18:41.282Z,3.02
2019-05-13T11:21:13.052Z,3.05
2019-05-13T11:23:40.531Z,4.15
2019-05-13T11:26:09.156Z,3.87
2019-05-13T11:28:38.172Z,4.10
2019-05-13T11:31:06.815Z,4.58
2019-05-13T12:18:23.359Z,8.85
2019-05-13T12:20:53.592Z,4.22
2019-05-13T12:23:20.713Z,4.12
2019-05-13T12:25:52.580Z,3.80
2019-05-13T12:28:20.005Z,2.55
2019-05-13T12:30:49.067Z,3.60
2019-05-13T12:33:17.888Z,2.65
2019-05-13T12:35:46.424Z,5.10
2019-05-13T12:38:14.974Z,2.17
2019-05-13T12:40:43.619Z,2.20
2019-05-13T12:43:13.497Z,4.47
2019-05-13T12:45:43.449Z,5.15
2019-05-13T12:48:14.047Z,3.25
2019-05-13T12:50:43.412Z,5.12
2019-05-13T12:53:12.909Z,4.17
2019-05-13T12:55:41.955Z,1.80
2019-05-13T12:58:12.140Z,4.22
2019-05-13T13:00:43.540Z,3.12
2019-05-13T13:03:13.378Z,7.08
2019-05-13T13:05:43.121Z,2.22
2019-05-13T13:08:19.251Z,4.60
2019-05-13T13:10:42.957Z,3.30
2019-05-13T13:13:11.560Z,5.85
2019-05-13T13:15:43.431Z,4.50
2019-05-13T13:18:14.345Z,10.28
2019-05-13T13:20:42.392Z,5.50
2019-05-13T13:23:12.881Z,4.62
2019-05-13T13:25:44.187Z,5.42
2019-05-13T13:28:15.532Z,6.70
2019-05-13T13:30:44.087Z,4.50
2019-05-13T13:33:14.889Z,2.77
2019-05-13T13:35:45.137Z,1.95
2019-05-13T13:38:13.933Z,1.95
2019-05-13T13:40:45.564Z,3.00
2019-05-13T13:43:13.474Z,2.75
2019-05-13T13:46:06.763Z,7.47
2019-05-13T13:48:13.573Z,6.70
2019-05-13T13:50:44.286Z,4.80
2019-05-13T13:53:14.242Z,4.28
2019-05-13T13:55:44.232Z,4.72
2019-05-13T13:58:14.380Z,7.62
2019-05-13T14:00:56.059Z,3.55
2019-05-13T14:03:13.783Z,4.75
2019-05-13T14:05:42.991Z,2.98
2019-05-13T14:08:12.544Z,2.15
2019-05-13T14:10:41.979Z,1.95
2019-05-13T14:13:12.476Z,1.52
2019-05-13T14:15:41.830Z,3.45
2019-05-13T14:18:11.414Z,3.72
2019-05-13T14:20:42.757Z,2.60
2019-05-13T14:23:12.630Z,5.62
2019-05-13T14:25:42.056Z,3.00
2019-05-13T14:28:10.767Z,2.52
2019-05-13T14:30:42.009Z,3.90
2019-05-13T14:33:09.782Z,4.37
2019-05-13T14:35:38.291Z,3.42
2019-05-13T14:38:06.817Z,4.78
2019-05-13T14:40:35.359Z,3.08
2019-05-13T14:43:03.998Z,2.15
2019-05-13T14:45:32.963Z,3.50
2019-05-13T14:48:01.824Z,2.83
2019-05-13T14:50:31.943Z,3.25
2019-05-13T14:53:01.563Z,1.42
2019-05-13T14:55:32.014Z,1.95
2019-05-13T14:58:01.543Z,4.10
2019-05-13T15:00:32.746Z,2.25
2019-05-13T15:03:03.083Z,2.30
2019-05-13T15:05:31.559Z,3.62
2019-05-13T15:08:00.167Z,2.62
2019-05-13T15:10:30.836Z,3.95
2019-05-13T15:12:59.364Z,5.28
2019-05-13T15:15:28.008Z,4.75
2019-05-13T15:17:56.729Z,2.62
2019-05-13T15:20:25.371Z,2.00
2019-05-13T15:22:53.896Z,5.17
2019-05-13T15:25:22.573Z,2.12
2019-05-13T15:27:52.852Z,2.37
2019-05-13T15:30:22.015Z,2.60
2019-05-13T15:32:52.593Z,2.50
2019-05-13T15:35:21.466Z,2.40
2019-05-13T15:37:52.425Z,2.75
2019-05-13T15:40:22.017Z,2.83
2019-05-13T15:42:51.775Z,4.97
2019-05-13T15:45:21.291Z,5.35
2019-05-13T15:47:51.591Z,4.85
2019-05-13T15:50:21.469Z,2.47
2019-05-13T15:52:50.091Z,3.70
2019-05-13T15:55:21.223Z,5.10
2019-05-13T15:57:51.644Z,5.70
2019-05-13T16:00:21.957Z,3.42
2019-05-13T16:02:52.254Z,2.25
2019-05-13T16:05:21.106Z,4.37
2019-05-13T16:07:51.640Z,2.27
2019-05-13T16:10:20.270Z,2.37
2019-05-13T16:12:48.924Z,3.47
2019-05-13T16:15:17.569Z,2.85
2019-05-13T16:17:46.097Z,2.90
2019-05-13T16:20:14.877Z,4.25
2019-05-13T16:22:43.533Z,4.92
2019-05-13T16:25:12.886Z,6.55
2019-05-13T16:27:41.753Z,3.30
2019-05-13T16:30:11.782Z,6.87
2019-05-13T16:32:42.463Z,7.17
2019-05-13T16:35:13.658Z,5.03
2019-05-13T16:37:42.007Z,8.68
2019-05-13T16:40:11.915Z,5.20
2019-05-13T16:42:42.225Z,3.72
2019-05-13T16:45:12.503Z,16.50
2019-05-13T16:48:03.579Z,2.85
2019-05-13T16:50:12.933Z,5.28
2019-05-13T16:52:41.931Z,3.37
2019-05-13T16:55:12.816Z,4.10
2019-05-13T16:57:42.351Z,12.47
2019-05-13T17:00:11.634Z,3.00
2019-05-13T17:02:42.141Z,11.33
2019-05-13T17:11:02.144Z,5.70
2019-05-13T17:13:31.609Z,4.42
2019-05-13T17:16:01.569Z,7.30
2019-05-13T17:18:32.400Z,22.10
2019-05-13T17:21:01.527Z,13.30
2019-05-13T17:23:30.460Z,4.67
2019-05-13T17:25:59.228Z,4.03
2019-05-13T17:28:30.771Z,3.45
2019-05-13T17:30:58.429Z,19.23
2019-05-13T17:33:27.326Z,15.30
2019-05-13T17:35:55.899Z,8.65
2019-05-13T17:38:24.535Z,3.95
2019-05-13T17:40:53.260Z,4.40
2019-05-13T17:43:21.835Z,2.27
2019-05-13T17:45:52.328Z,2.58
2019-05-13T17:48:26.823Z,3.92
2019-05-13T17:50:52.247Z,6.72
2019-05-13T17:53:21.684Z,17.05
2019-05-13T17:55:51.621Z,7.53
2019-05-13T17:58:22.185Z,2.77
2019-05-13T18:00:52.049Z,5.97
2019-05-13T18:03:20.774Z,1.72
2019-05-13T18:05:51.311Z,3.95
2019-05-13T18:08:20.093Z,3.65
2019-05-13T18:10:51.239Z,8.35
2019-05-13T18:13:21.523Z,5.62
2019-05-13T18:15:50.201Z,4.17
2019-05-13T18:18:18.767Z,1.72
2019-05-13T18:20:47.692Z,5.05
2019-05-13T18:23:16.429Z,3.62
2019-05-13T18:25:45.089Z,5.92
2019-05-13T18:28:27.465Z,2.50
2019-05-13T18:30:44.227Z,6.53
2019-05-13T18:33:12.845Z,5.00
2019-05-13T18:35:41.985Z,2.83
2019-05-13T18:38:11.971Z,5.40
2019-05-13T18:40:41.973Z,7.22
2019-05-13T18:43:10.762Z,6.80
2019-05-13T18:45:41.826Z,5.60
2019-05-13T18:48:12.118Z,3.12
2019-05-13T18:50:41.951Z,4.58
2019-05-13T18:53:13.437Z,3.37
2019-05-13T18:55:41.994Z,7.78
2019-05-13T18:58:11.655Z,3.90
2019-05-13T19:00:41.643Z,4.78
2019-05-13T19:03:12.272Z,8.70
2019-05-13T19:05:42.196Z,10.03
2019-05-13T19:08:12.369Z,3.42
2019-05-13T19:10:41.497Z,3.80
2019-05-13T19:13:12.426Z,1.85
2019-05-13T19:15:41.175Z,5.50
2019-05-13T19:18:12.061Z,16.97
2019-05-13T19:20:41.869Z,4.87
2019-05-13T19:23:11.804Z,6.85
2019-05-13T19:25:42.660Z,6.22
2019-05-13T19:28:11.899Z,2.77
2019-05-13T19:30:41.172Z,5.05
2019-05-13T19:33:12.179Z,2.70
2019-05-13T19:35:42.659Z,3.17
2019-05-13T19:38:12.094Z,3.85
2019-05-13T19:40:41.911Z,4.03
2019-05-13T19:43:11.578Z,5.90
2019-05-13T19:45:41.677Z,6.35
2019-05-13T19:48:11.883Z,4.10
2019-05-13T19:50:41.607Z,21.02
2019-05-13T19:53:12.035Z,5.67
2019-05-13T19:55:41.594Z,6.90
2019-05-13T19:58:12.465Z,5.00
2019-05-13T20:00:42.421Z,15.83
2019-05-13T20:03:11.793Z,5.75
2019-05-13T20:05:41.530Z,4.62
2019-05-13T20:08:10.218Z,4.55
2019-05-13T20:10:38.894Z,4.28
2019-05-13T20:13:07.484Z,7.42
2019-05-13T20:15:36.267Z,4.67
2019-05-13T20:18:05.428Z,2.75
2019-05-13T20:20:34.191Z,4.72
2019-05-13T20:23:02.971Z,3.05
2019-05-13T20:25:31.513Z,5.20
2019-05-13T20:28:02.177Z,5.30
2019-05-13T20:30:30.741Z,3.55
2019-05-13T20:32:59.454Z,4.25
2019-05-13T20:35:28.626Z,6.03
2019-05-13T20:37:57.146Z,5.42
2019-05-13T20:40:25.828Z,5.95
2019-05-13T20:42:54.340Z,5.12
2019-05-13T20:45:23.190Z,4.17
2019-05-13T20:47:51.753Z,6.20
2019-05-13T20:50:21.655Z,7.28
2019-05-13T20:52:51.599Z,16.02
2019-05-13T20:55:22.032Z,4.03
2019-05-13T20:57:53.140Z,5.08
2019-05-13T21:00:21.424Z,6.85
2019-05-13T21:02:51.663Z,3.35
2019-05-13T21:05:21.771Z,3.12
2019-05-13T21:07:51.535Z,3.40
2019-05-13T21:10:21.209Z,5.83
2019-05-13T21:12:51.455Z,5.05
2019-05-13T21:15:20.337Z,4.40
2019-05-13T21:17:48.972Z,5.05
2019-05-13T21:20:22.498Z,3.60
2019-05-13T21:22:48.491Z,3.42
2019-05-13T21:25:17.220Z,5.58
2019-05-13T21:27:45.768Z,14.30
2019-05-13T21:30:14.972Z,3.60
2019-05-13T21:32:43.781Z,4.72
2019-05-13T21:35:12.694Z,2.50
2019-05-13T21:37:41.302Z,2.60
2019-05-13T21:40:11.135Z,3.27
2019-05-13T21:42:41.899Z,1.15
2019-05-13T21:45:11.586Z,1.17
2019-05-13T21:47:40.134Z,5.00
2019-05-13T21:50:11.337Z,4.15
2019-05-13T21:52:41.747Z,3.22
2019-05-13T21:55:11.391Z,1.67
2019-05-13T21:57:41.574Z,6.95
2019-05-13T22:00:15.044Z,2.42
2019-05-13T22:02:43.773Z,1.67
2019-05-13T22:05:12.654Z,3.87
2019-05-13T22:07:42.071Z,4.67
2019-05-13T22:10:10.961Z,4.00
2019-05-13T22:12:41.412Z,1.67
2019-05-13T22:15:10.311Z,5.10
2019-05-13T22:17:38.867Z,2.35
2019-05-13T22:20:08.245Z,3.33
2019-05-13T22:22:36.879Z,2.15
2019-05-13T22:25:06.214Z,1.85
2019-05-13T22:27:34.833Z,4.70
2019-05-13T22:30:05.209Z,3.00
2019-05-13T22:32:33.788Z,2.47
2019-05-13T22:35:02.585Z,6.05
2019-05-13T22:37:31.367Z,5.85
2019-05-13T22:40:01.579Z,4.05
2019-05-13T22:42:32.170Z,4.50
2019-05-13T22:45:02.807Z,3.75
2019-05-13T22:47:31.596Z,4.30
2019-05-13T22:50:02.061Z,3.15
2019-05-13T22:52:31.281Z,4.53
2019-05-13T22:55:02.299Z,2.52
2019-05-13T22:57:31.307Z,4.75
2019-05-13T23:00:00.133Z,2.37
2019-05-13T23:02:28.940Z,2.92
2019-05-13T23:04:57.695Z,5.22
2019-05-13T23:07:26.244Z,3.45
2019-05-13T23:09:54.779Z,3.65
2019-05-13T23:12:23.301Z,2.25
2019-05-13T23:14:52.182Z,3.15
2019-05-13T23:17:21.547Z,3.60
2019-05-13T23:19:52.216Z,6.83
2019-05-13T23:22:20.734Z,2.42
2019-05-13T23:24:49.263Z,2.58
2019-05-13T23:27:17.922Z,6.17
2019-05-13T23:29:46.558Z,2.65
2019-05-13T23:32:15.383Z,6.08
2019-05-13T23:34:43.909Z,6.47
2019-05-13T23:37:12.640Z,3.72
2019-05-13T23:39:41.795Z,2.00
2019-05-13T23:42:12.258Z,2.10
2019-05-13T23:44:41.577Z,4.92
2019-05-13T23:47:11.420Z,4.53
2019-05-13T23:49:42.138Z,4.33
2019-05-13T23:52:11.698Z,5.83
2019-05-13T23:54:42.539Z,4.45
2019-05-13T23:57:11.854Z,6.03
2019-05-13T23:59:41.889Z,3.62
